sensor_id;sensor_type;location;lat;lon;timestamp;temperature;humidity
64924;HTU21D;51436;44.692;39.214;2022-08-19T00:00:30;23.92;74.68
64924;HTU21D;51436;44.692;39.214;2022-08-19T00:02:56;23.90;74.62
64924;HTU21D;51436;44.692;39.214;2022-08-19T00:05:23;23.87;74.63
64924;HTU21D;51436;44.692;39.214;2022-08-19T00:07:50;23.82;74.69
64924;HTU21D;51436;44.692;39.214;2022-08-19T00:10:17;23.76;74.81
64924;HTU21D;51436;44.692;39.214;2022-08-19T00:12:43;23.73;74.86
64924;HTU21D;51436;44.692;39.214;2022-08-19T00:15:13;23.71;74.83
64924;HTU21D;51436;44.692;39.214;2022-08-19T00:17:42;23.71;74.73
64924;HTU21D;51436;44.692;39.214;2022-08-19T00:20:11;23.71;74.65
64924;HTU21D;51436;44.692;39.214;2022-08-19T00:22:39;23.68;74.60
64924;HTU21D;51436;44.692;39.214;2022-08-19T00:25:07;23.66;74.61
64924;HTU21D;51436;44.692;39.214;2022-08-19T00:27:34;23.61;74.70
64924;HTU21D;51436;44.692;39.214;2022-08-19T00:30:01;23.55;74.82
64924;HTU21D;51436;44.692;39.214;2022-08-19T00:32:29;23.54;74.80
64924;HTU21D;51436;44.692;39.214;2022-08-19T00:34:56;23.55;74.73
64924;HTU21D;51436;44.692;39.214;2022-08-19T00:37:23;23.56;74.63
64924;HTU21D;51436;44.692;39.214;2022-08-19T00:39:52;23.59;74.55
64924;HTU21D;51436;44.692;39.214;2022-08-19T00:42:20;23.59;74.50
64924;HTU21D;51436;44.692;39.214;2022-08-19T00:44:47;23.57;74.53
64924;HTU21D;51436;44.692;39.214;2022-08-19T00:47:13;23.53;74.56
64924;HTU21D;51436;44.692;39.214;2022-08-19T00:49:45;23.54;74.47
64924;HTU21D;51436;44.692;39.214;2022-08-19T00:52:29;23.49;74.51
64924;HTU21D;51436;44.692;39.214;2022-08-19T00:54:57;23.47;74.56
64924;HTU21D;51436;44.692;39.214;2022-08-19T00:57:30;23.46;74.59
64924;HTU21D;51436;44.692;39.214;2022-08-19T00:59:59;23.47;74.51
64924;HTU21D;51436;44.692;39.214;2022-08-19T01:02:27;23.47;74.44
64924;HTU21D;51436;44.692;39.214;2022-08-19T01:04:53;23.46;74.47
64924;HTU21D;51436;44.692;39.214;2022-08-19T01:07:20;23.46;74.37
64924;HTU21D;51436;44.692;39.214;2022-08-19T01:09:47;23.44;74.27
64924;HTU21D;51436;44.692;39.214;2022-08-19T01:12:13;23.44;74.18
64924;HTU21D;51436;44.692;39.214;2022-08-19T01:14:40;23.40;74.18
64924;HTU21D;51436;44.692;39.214;2022-08-19T01:17:08;23.35;74.22
64924;HTU21D;51436;44.692;39.214;2022-08-19T01:19:38;23.28;74.28
64924;HTU21D;51436;44.692;39.214;2022-08-19T01:22:16;23.26;74.25
64924;HTU21D;51436;44.692;39.214;2022-08-19T01:24:45;23.25;74.23
64924;HTU21D;51436;44.692;39.214;2022-08-19T01:27:11;23.22;74.26
64924;HTU21D;51436;44.692;39.214;2022-08-19T01:29:40;23.20;74.28
64924;HTU21D;51436;44.692;39.214;2022-08-19T01:32:10;23.17;74.25
64924;HTU21D;51436;44.692;39.214;2022-08-19T01:34:38;23.17;74.25
64924;HTU21D;51436;44.692;39.214;2022-08-19T01:37:09;23.14;74.28
64924;HTU21D;51436;44.692;39.214;2022-08-19T01:39:38;23.12;74.27
64924;HTU21D;51436;44.692;39.214;2022-08-19T01:42:06;23.13;74.27
64924;HTU21D;51436;44.692;39.214;2022-08-19T01:44:34;23.13;74.18
64924;HTU21D;51436;44.692;39.214;2022-08-19T01:47:02;23.12;74.17
64924;HTU21D;51436;44.692;39.214;2022-08-19T01:49:29;23.11;74.25
64924;HTU21D;51436;44.692;39.214;2022-08-19T01:51:56;23.11;74.36
64924;HTU21D;51436;44.692;39.214;2022-08-19T01:54:24;23.10;74.41
64924;HTU21D;51436;44.692;39.214;2022-08-19T01:56:53;23.12;74.38
64924;HTU21D;51436;44.692;39.214;2022-08-19T01:59:23;23.13;74.32
64924;HTU21D;51436;44.692;39.214;2022-08-19T02:01:50;23.12;74.28
64924;HTU21D;51436;44.692;39.214;2022-08-19T02:04:16;23.11;74.20
64924;HTU21D;51436;44.692;39.214;2022-08-19T02:06:42;23.11;74.12
64924;HTU21D;51436;44.692;39.214;2022-08-19T02:09:09;23.11;74.09
64924;HTU21D;51436;44.692;39.214;2022-08-19T02:11:36;23.08;74.18
64924;HTU21D;51436;44.692;39.214;2022-08-19T02:14:05;23.06;74.22
64924;HTU21D;51436;44.692;39.214;2022-08-19T02:16:33;23.06;74.16
64924;HTU21D;51436;44.692;39.214;2022-08-19T02:18:59;23.07;74.11
64924;HTU21D;51436;44.692;39.214;2022-08-19T02:21:27;23.03;74.12
64924;HTU21D;51436;44.692;39.214;2022-08-19T02:23:54;23.01;74.13
64924;HTU21D;51436;44.692;39.214;2022-08-19T02:26:21;22.99;74.20
64924;HTU21D;51436;44.692;39.214;2022-08-19T02:28:48;22.95;74.33
64924;HTU21D;51436;44.692;39.214;2022-08-19T02:31:18;22.93;74.43
64924;HTU21D;51436;44.692;39.214;2022-08-19T02:33:45;22.90;74.60
64924;HTU21D;51436;44.692;39.214;2022-08-19T02:36:13;22.87;74.56
64924;HTU21D;51436;44.692;39.214;2022-08-19T02:38:40;22.87;74.46
64924;HTU21D;51436;44.692;39.214;2022-08-19T02:41:12;22.91;74.41
64924;HTU21D;51436;44.692;39.214;2022-08-19T02:43:39;22.92;74.28
64924;HTU21D;51436;44.692;39.214;2022-08-19T02:48:43;22.98;74.08
64924;HTU21D;51436;44.692;39.214;2022-08-19T02:51:19;22.98;73.96
64924;HTU21D;51436;44.692;39.214;2022-08-19T02:53:47;23.01;73.77
64924;HTU21D;51436;44.692;39.214;2022-08-19T02:56:16;23.02;73.71
64924;HTU21D;51436;44.692;39.214;2022-08-19T02:58:43;23.08;73.54
64924;HTU21D;51436;44.692;39.214;2022-08-19T03:01:10;23.16;73.28
64924;HTU21D;51436;44.692;39.214;2022-08-19T03:03:37;23.32;72.80
64924;HTU21D;51436;44.692;39.214;2022-08-19T03:06:09;23.52;72.29
64924;HTU21D;51436;44.692;39.214;2022-08-19T03:08:37;23.57;72.01
64924;HTU21D;51436;44.692;39.214;2022-08-19T03:11:03;23.59;71.93
64924;HTU21D;51436;44.692;39.214;2022-08-19T03:13:30;23.60;72.00
64924;HTU21D;51436;44.692;39.214;2022-08-19T03:15:56;23.64;71.97
64924;HTU21D;51436;44.692;39.214;2022-08-19T03:18:23;23.68;71.89
64924;HTU21D;51436;44.692;39.214;2022-08-19T03:20:51;23.71;71.82
64924;HTU21D;51436;44.692;39.214;2022-08-19T03:23:22;23.66;72.07
64924;HTU21D;51436;44.692;39.214;2022-08-19T03:25:51;23.62;72.27
64924;HTU21D;51436;44.692;39.214;2022-08-19T03:28:18;23.58;72.42
64924;HTU21D;51436;44.692;39.214;2022-08-19T03:30:59;23.52;72.64
64924;HTU21D;51436;44.692;39.214;2022-08-19T03:33:26;23.45;72.98
64924;HTU21D;51436;44.692;39.214;2022-08-19T03:36:18;23.40;73.15
64924;HTU21D;51436;44.692;39.214;2022-08-19T03:38:52;23.38;73.37
64924;HTU21D;51436;44.692;39.214;2022-08-19T03:41:26;23.39;73.46
64924;HTU21D;51436;44.692;39.214;2022-08-19T03:43:53;23.41;73.53
64924;HTU21D;51436;44.692;39.214;2022-08-19T03:46:23;23.40;73.56
64924;HTU21D;51436;44.692;39.214;2022-08-19T03:48:53;23.41;73.69
64924;HTU21D;51436;44.692;39.214;2022-08-19T03:51:28;23.41;73.83
64924;HTU21D;51436;44.692;39.214;2022-08-19T03:53:58;23.43;73.86
64924;HTU21D;51436;44.692;39.214;2022-08-19T03:56:25;23.46;73.93
64924;HTU21D;51436;44.692;39.214;2022-08-19T03:58:53;23.50;73.99
64924;HTU21D;51436;44.692;39.214;2022-08-19T04:01:22;23.54;73.97
64924;HTU21D;51436;44.692;39.214;2022-08-19T04:03:49;23.55;74.15
64924;HTU21D;51436;44.692;39.214;2022-08-19T04:08:45;23.56;74.31
64924;HTU21D;51436;44.692;39.214;2022-08-19T04:11:15;23.60;74.29
64924;HTU21D;51436;44.692;39.214;2022-08-19T04:13:41;23.65;74.32
64924;HTU21D;51436;44.692;39.214;2022-08-19T04:16:10;23.68;74.32
64924;HTU21D;51436;44.692;39.214;2022-08-19T04:18:38;23.72;74.35
64924;HTU21D;51436;44.692;39.214;2022-08-19T04:21:06;23.81;74.28
64924;HTU21D;51436;44.692;39.214;2022-08-19T04:23:32;23.91;74.09
64924;HTU21D;51436;44.692;39.214;2022-08-19T04:25:59;23.99;74.03
64924;HTU21D;51436;44.692;39.214;2022-08-19T04:28:25;24.05;74.12
64924;HTU21D;51436;44.692;39.214;2022-08-19T04:30:53;24.10;74.25
64924;HTU21D;51436;44.692;39.214;2022-08-19T04:33:22;24.15;74.31
64924;HTU21D;51436;44.692;39.214;2022-08-19T04:35:51;24.16;74.43
64924;HTU21D;51436;44.692;39.214;2022-08-19T04:38:20;24.18;74.46
64924;HTU21D;51436;44.692;39.214;2022-08-19T04:40:50;24.17;74.62
64924;HTU21D;51436;44.692;39.214;2022-08-19T04:43:37;24.19;74.76
64924;HTU21D;51436;44.692;39.214;2022-08-19T04:46:11;24.23;74.69
64924;HTU21D;51436;44.692;39.214;2022-08-19T04:48:39;24.26;74.81
64924;HTU21D;51436;44.692;39.214;2022-08-19T04:51:07;24.24;74.85
64924;HTU21D;51436;44.692;39.214;2022-08-19T04:53:36;24.23;74.99
64924;HTU21D;51436;44.692;39.214;2022-08-19T04:56:11;24.26;74.86
64924;HTU21D;51436;44.692;39.214;2022-08-19T04:58:40;24.25;75.03
64924;HTU21D;51436;44.692;39.214;2022-08-19T05:01:19;24.27;75.06
64924;HTU21D;51436;44.692;39.214;2022-08-19T05:03:46;24.32;75.03
64924;HTU21D;51436;44.692;39.214;2022-08-19T05:06:15;24.39;74.96
64924;HTU21D;51436;44.692;39.214;2022-08-19T05:08:42;24.44;74.90
64924;HTU21D;51436;44.692;39.214;2022-08-19T05:11:25;24.57;74.54
64924;HTU21D;51436;44.692;39.214;2022-08-19T05:13:52;24.68;74.38
64924;HTU21D;51436;44.692;39.214;2022-08-19T05:16:20;24.75;74.26
64924;HTU21D;51436;44.692;39.214;2022-08-19T05:18:47;24.89;74.08
64924;HTU21D;51436;44.692;39.214;2022-08-19T05:21:33;24.94;74.06
64924;HTU21D;51436;44.692;39.214;2022-08-19T05:24:18;25.14;73.82
64924;HTU21D;51436;44.692;39.214;2022-08-19T05:26:47;25.28;73.57
64924;HTU21D;51436;44.692;39.214;2022-08-19T05:29:16;25.35;73.60
64924;HTU21D;51436;44.692;39.214;2022-08-19T05:31:42;25.43;73.53
64924;HTU21D;51436;44.692;39.214;2022-08-19T05:34:09;25.56;73.32
64924;HTU21D;51436;44.692;39.214;2022-08-19T05:36:39;25.63;73.27
64924;HTU21D;51436;44.692;39.214;2022-08-19T05:39:07;25.62;73.35
64924;HTU21D;51436;44.692;39.214;2022-08-19T05:41:34;25.66;73.35
64924;HTU21D;51436;44.692;39.214;2022-08-19T05:44:04;25.69;73.29
64924;HTU21D;51436;44.692;39.214;2022-08-19T05:46:36;25.71;73.44
64924;HTU21D;51436;44.692;39.214;2022-08-19T05:49:05;25.80;73.31
64924;HTU21D;51436;44.692;39.214;2022-08-19T05:51:33;25.97;73.06
64924;HTU21D;51436;44.692;39.214;2022-08-19T05:54:01;26.15;72.70
64924;HTU21D;51436;44.692;39.214;2022-08-19T05:56:28;26.26;72.66
64924;HTU21D;51436;44.692;39.214;2022-08-19T05:58:57;26.26;72.60
64924;HTU21D;51436;44.692;39.214;2022-08-19T06:01:26;26.27;72.78
64924;HTU21D;51436;44.692;39.214;2022-08-19T06:03:52;26.23;73.04
64924;HTU21D;51436;44.692;39.214;2022-08-19T06:06:20;26.25;73.03
64924;HTU21D;51436;44.692;39.214;2022-08-19T06:08:46;26.35;72.97
64924;HTU21D;51436;44.692;39.214;2022-08-19T06:13:50;26.33;73.06
64924;HTU21D;51436;44.692;39.214;2022-08-19T06:16:19;26.26;73.07
64924;HTU21D;51436;44.692;39.214;2022-08-19T06:21:38;26.35;72.95
64924;HTU21D;51436;44.692;39.214;2022-08-19T06:24:06;26.50;72.52
64924;HTU21D;51436;44.692;39.214;2022-08-19T06:26:39;26.61;72.19
64924;HTU21D;51436;44.692;39.214;2022-08-19T06:29:07;26.65;72.16
64924;HTU21D;51436;44.692;39.214;2022-08-19T06:31:35;26.56;72.41
64924;HTU21D;51436;44.692;39.214;2022-08-19T06:34:03;26.49;72.64
64924;HTU21D;51436;44.692;39.214;2022-08-19T06:36:34;26.46;72.71
64924;HTU21D;51436;44.692;39.214;2022-08-19T06:39:04;26.53;72.65
64924;HTU21D;51436;44.692;39.214;2022-08-19T06:41:34;26.61;72.26
64924;HTU21D;51436;44.692;39.214;2022-08-19T06:44:00;26.65;72.28
64924;HTU21D;51436;44.692;39.214;2022-08-19T06:46:27;26.65;72.34
64924;HTU21D;51436;44.692;39.214;2022-08-19T06:48:54;26.66;72.67
64924;HTU21D;51436;44.692;39.214;2022-08-19T06:51:22;26.66;72.72
64924;HTU21D;51436;44.692;39.214;2022-08-19T06:53:52;26.69;72.79
64924;HTU21D;51436;44.692;39.214;2022-08-19T06:56:25;26.66;72.89
64924;HTU21D;51436;44.692;39.214;2022-08-19T06:58:57;26.66;73.06
64924;HTU21D;51436;44.692;39.214;2022-08-19T07:01:23;26.80;73.03
64924;HTU21D;51436;44.692;39.214;2022-08-19T07:03:50;27.05;72.51
64924;HTU21D;51436;44.692;39.214;2022-08-19T07:06:18;27.24;71.61
64924;HTU21D;51436;44.692;39.214;2022-08-19T07:08:47;27.37;71.31
64924;HTU21D;51436;44.692;39.214;2022-08-19T07:11:15;27.52;70.66
64924;HTU21D;51436;44.692;39.214;2022-08-19T07:13:44;27.56;70.45
64924;HTU21D;51436;44.692;39.214;2022-08-19T07:16:14;27.66;69.81
64924;HTU21D;51436;44.692;39.214;2022-08-19T07:18:41;27.81;68.78
64924;HTU21D;51436;44.692;39.214;2022-08-19T07:21:14;27.95;68.63
64924;HTU21D;51436;44.692;39.214;2022-08-19T07:23:41;28.06;68.37
64924;HTU21D;51436;44.692;39.214;2022-08-19T07:26:10;28.09;67.81
64924;HTU21D;51436;44.692;39.214;2022-08-19T07:28:37;28.00;67.27
64924;HTU21D;51436;44.692;39.214;2022-08-19T07:31:06;27.88;67.30
64924;HTU21D;51436;44.692;39.214;2022-08-19T07:33:33;27.88;67.46
64924;HTU21D;51436;44.692;39.214;2022-08-19T07:36:07;27.89;67.25
64924;HTU21D;51436;44.692;39.214;2022-08-19T07:38:36;27.87;67.37
64924;HTU21D;51436;44.692;39.214;2022-08-19T07:41:04;27.86;67.24
64924;HTU21D;51436;44.692;39.214;2022-08-19T07:43:30;27.87;67.39
64924;HTU21D;51436;44.692;39.214;2022-08-19T07:45:57;27.93;67.07
64924;HTU21D;51436;44.692;39.214;2022-08-19T07:48:25;28.11;66.17
64924;HTU21D;51436;44.692;39.214;2022-08-19T07:50:57;28.38;65.31
64924;HTU21D;51436;44.692;39.214;2022-08-19T07:53:24;28.59;64.17
64924;HTU21D;51436;44.692;39.214;2022-08-19T07:55:51;28.59;63.52
64924;HTU21D;51436;44.692;39.214;2022-08-19T07:58:20;28.54;63.63
64924;HTU21D;51436;44.692;39.214;2022-08-19T08:00:49;28.53;63.53
64924;HTU21D;51436;44.692;39.214;2022-08-19T08:03:19;28.47;63.57
64924;HTU21D;51436;44.692;39.214;2022-08-19T08:05:46;28.43;64.11
64924;HTU21D;51436;44.692;39.214;2022-08-19T08:08:31;28.35;64.01
64924;HTU21D;51436;44.692;39.214;2022-08-19T08:11:19;28.28;64.05
64924;HTU21D;51436;44.692;39.214;2022-08-19T08:13:46;28.25;63.95
64924;HTU21D;51436;44.692;39.214;2022-08-19T08:16:14;28.21;63.88
64924;HTU21D;51436;44.692;39.214;2022-08-19T08:18:40;28.23;63.57
64924;HTU21D;51436;44.692;39.214;2022-08-19T08:21:08;28.32;63.55
64924;HTU21D;51436;44.692;39.214;2022-08-19T08:23:35;28.43;62.98
64924;HTU21D;51436;44.692;39.214;2022-08-19T08:26:01;28.46;62.54
64924;HTU21D;51436;44.692;39.214;2022-08-19T08:28:28;28.56;62.53
64924;HTU21D;51436;44.692;39.214;2022-08-19T08:30:56;28.69;62.31
64924;HTU21D;51436;44.692;39.214;2022-08-19T08:33:26;28.75;62.41
64924;HTU21D;51436;44.692;39.214;2022-08-19T08:35:52;28.71;62.67
64924;HTU21D;51436;44.692;39.214;2022-08-19T08:38:19;28.59;62.94
64924;HTU21D;51436;44.692;39.214;2022-08-19T08:40:49;28.57;63.21
64924;HTU21D;51436;44.692;39.214;2022-08-19T08:46:03;28.69;63.09
64924;HTU21D;51436;44.692;39.214;2022-08-19T08:51:05;28.52;63.52
64924;HTU21D;51436;44.692;39.214;2022-08-19T08:53:34;28.58;63.52
64924;HTU21D;51436;44.692;39.214;2022-08-19T08:56:03;28.67;63.23
64924;HTU21D;51436;44.692;39.214;2022-08-19T09:01:12;28.52;63.78
64924;HTU21D;51436;44.692;39.214;2022-08-19T09:03:40;28.45;63.92
64924;HTU21D;51436;44.692;39.214;2022-08-19T09:17:09;29.06;63.00
64924;HTU21D;51436;44.692;39.214;2022-08-19T09:19:51;29.18;63.17
64924;HTU21D;51436;44.692;39.214;2022-08-19T09:22:18;29.27;62.63
64924;HTU21D;51436;44.692;39.214;2022-08-19T09:24:49;29.28;62.10
64924;HTU21D;51436;44.692;39.214;2022-08-19T09:27:16;29.14;62.19
64924;HTU21D;51436;44.692;39.214;2022-08-19T09:29:42;29.04;62.05
64924;HTU21D;51436;44.692;39.214;2022-08-19T09:32:09;28.95;62.31
64924;HTU21D;51436;44.692;39.214;2022-08-19T09:34:35;28.92;62.21
64924;HTU21D;51436;44.692;39.214;2022-08-19T09:37:02;28.89;62.15
64924;HTU21D;51436;44.692;39.214;2022-08-19T09:39:29;28.87;62.31
64924;HTU21D;51436;44.692;39.214;2022-08-19T09:41:56;28.87;62.08
64924;HTU21D;51436;44.692;39.214;2022-08-19T09:44:22;28.88;62.35
64924;HTU21D;51436;44.692;39.214;2022-08-19T09:46:49;28.88;62.02
64924;HTU21D;51436;44.692;39.214;2022-08-19T09:49:18;28.94;61.73
64924;HTU21D;51436;44.692;39.214;2022-08-19T09:51:45;29.06;61.58
64924;HTU21D;51436;44.692;39.214;2022-08-19T09:54:15;29.13;61.57
64924;HTU21D;51436;44.692;39.214;2022-08-19T09:56:41;29.20;61.67
64924;HTU21D;51436;44.692;39.214;2022-08-19T09:59:08;29.38;61.61
64924;HTU21D;51436;44.692;39.214;2022-08-19T10:01:36;29.58;60.46
64924;HTU21D;51436;44.692;39.214;2022-08-19T10:04:02;29.68;60.33
64924;HTU21D;51436;44.692;39.214;2022-08-19T10:06:36;29.80;60.38
64924;HTU21D;51436;44.692;39.214;2022-08-19T10:09:05;29.83;59.83
64924;HTU21D;51436;44.692;39.214;2022-08-19T10:11:33;29.92;59.84
64924;HTU21D;51436;44.692;39.214;2022-08-19T10:14:01;30.05;60.11
64924;HTU21D;51436;44.692;39.214;2022-08-19T10:16:28;30.10;59.55
64924;HTU21D;51436;44.692;39.214;2022-08-19T10:18:54;30.12;58.90
64924;HTU21D;51436;44.692;39.214;2022-08-19T10:21:24;30.12;58.93
64924;HTU21D;51436;44.692;39.214;2022-08-19T10:23:52;30.15;58.60
64924;HTU21D;51436;44.692;39.214;2022-08-19T10:26:23;30.16;58.20
64924;HTU21D;51436;44.692;39.214;2022-08-19T10:28:50;30.16;56.97
64924;HTU21D;51436;44.692;39.214;2022-08-19T10:31:19;30.11;56.54
64924;HTU21D;51436;44.692;39.214;2022-08-19T10:33:47;30.16;56.39
64924;HTU21D;51436;44.692;39.214;2022-08-19T10:36:17;30.24;56.33
64924;HTU21D;51436;44.692;39.214;2022-08-19T10:38:50;30.28;56.26
64924;HTU21D;51436;44.692;39.214;2022-08-19T10:41:20;30.34;56.03
64924;HTU21D;51436;44.692;39.214;2022-08-19T10:43:50;30.36;55.88
64924;HTU21D;51436;44.692;39.214;2022-08-19T10:46:18;30.37;55.55
64924;HTU21D;51436;44.692;39.214;2022-08-19T10:48:45;30.40;55.26
64924;HTU21D;51436;44.692;39.214;2022-08-19T10:51:12;30.42;54.82
64924;HTU21D;51436;44.692;39.214;2022-08-19T10:53:57;30.49;55.00
64924;HTU21D;51436;44.692;39.214;2022-08-19T10:56:24;30.57;54.97
64924;HTU21D;51436;44.692;39.214;2022-08-19T10:59:09;30.53;54.91
64924;HTU21D;51436;44.692;39.214;2022-08-19T11:01:41;30.42;54.59
64924;HTU21D;51436;44.692;39.214;2022-08-19T11:04:08;30.45;54.71
64924;HTU21D;51436;44.692;39.214;2022-08-19T11:06:37;30.46;54.46
64924;HTU21D;51436;44.692;39.214;2022-08-19T11:09:04;30.39;54.31
64924;HTU21D;51436;44.692;39.214;2022-08-19T11:11:31;30.44;54.39
64924;HTU21D;51436;44.692;39.214;2022-08-19T11:13:58;30.47;53.66
64924;HTU21D;51436;44.692;39.214;2022-08-19T11:16:26;30.50;53.36
64924;HTU21D;51436;44.692;39.214;2022-08-19T11:18:56;30.57;52.94
64924;HTU21D;51436;44.692;39.214;2022-08-19T11:21:27;30.65;52.43
64924;HTU21D;51436;44.692;39.214;2022-08-19T11:23:56;30.74;52.20
64924;HTU21D;51436;44.692;39.214;2022-08-19T11:26:23;30.76;51.85
64924;HTU21D;51436;44.692;39.214;2022-08-19T11:28:50;30.78;51.36
64924;HTU21D;51436;44.692;39.214;2022-08-19T11:31:23;30.83;51.62
64924;HTU21D;51436;44.692;39.214;2022-08-19T11:33:50;30.90;50.73
64924;HTU21D;51436;44.692;39.214;2022-08-19T11:36:18;30.95;50.93
64924;HTU21D;51436;44.692;39.214;2022-08-19T11:38:48;30.89;51.99
64924;HTU21D;51436;44.692;39.214;2022-08-19T11:41:16;30.90;51.68
64924;HTU21D;51436;44.692;39.214;2022-08-19T11:43:43;30.96;51.17
64924;HTU21D;51436;44.692;39.214;2022-08-19T11:46:12;30.87;51.46
64924;HTU21D;51436;44.692;39.214;2022-08-19T11:48:40;30.67;52.24
64924;HTU21D;51436;44.692;39.214;2022-08-19T11:51:13;30.47;53.10
64924;HTU21D;51436;44.692;39.214;2022-08-19T11:53:40;30.25;53.36
64924;HTU21D;51436;44.692;39.214;2022-08-19T11:56:08;30.11;53.78
64924;HTU21D;51436;44.692;39.214;2022-08-19T11:58:35;29.97;53.84
64924;HTU21D;51436;44.692;39.214;2022-08-19T12:01:05;29.89;53.86
64924;HTU21D;51436;44.692;39.214;2022-08-19T12:03:33;29.82;53.96
64924;HTU21D;51436;44.692;39.214;2022-08-19T12:06:04;29.74;54.18
64924;HTU21D;51436;44.692;39.214;2022-08-19T12:08:31;29.68;54.43
64924;HTU21D;51436;44.692;39.214;2022-08-19T12:10:57;29.62;54.87
64924;HTU21D;51436;44.692;39.214;2022-08-19T12:13:27;29.56;55.33
64924;HTU21D;51436;44.692;39.214;2022-08-19T12:15:54;29.51;55.55
64924;HTU21D;51436;44.692;39.214;2022-08-19T12:18:20;29.42;56.93
64924;HTU21D;51436;44.692;39.214;2022-08-19T12:20:47;29.32;57.91
64924;HTU21D;51436;44.692;39.214;2022-08-19T12:23:13;29.24;58.24
64924;HTU21D;51436;44.692;39.214;2022-08-19T12:25:49;29.20;58.12
64924;HTU21D;51436;44.692;39.214;2022-08-19T12:28:23;29.16;57.96
64924;HTU21D;51436;44.692;39.214;2022-08-19T12:30:51;29.13;58.85
64924;HTU21D;51436;44.692;39.214;2022-08-19T12:33:18;29.06;59.90
64924;HTU21D;51436;44.692;39.214;2022-08-19T12:35:49;29.01;60.57
64924;HTU21D;51436;44.692;39.214;2022-08-19T12:38:16;28.95;61.39
64924;HTU21D;51436;44.692;39.214;2022-08-19T12:40:45;28.90;61.92
64924;HTU21D;51436;44.692;39.214;2022-08-19T12:43:12;28.85;62.77
64924;HTU21D;51436;44.692;39.214;2022-08-19T12:45:39;28.78;62.87
64924;HTU21D;51436;44.692;39.214;2022-08-19T12:48:06;28.74;63.59
64924;HTU21D;51436;44.692;39.214;2022-08-19T12:50:32;28.69;63.92
64924;HTU21D;51436;44.692;39.214;2022-08-19T12:52:58;28.63;64.46
64924;HTU21D;51436;44.692;39.214;2022-08-19T12:55:25;28.57;64.84
64924;HTU21D;51436;44.692;39.214;2022-08-19T12:57:54;28.52;65.44
64924;HTU21D;51436;44.692;39.214;2022-08-19T13:00:21;28.46;65.91
64924;HTU21D;51436;44.692;39.214;2022-08-19T13:02:52;28.42;65.91
64924;HTU21D;51436;44.692;39.214;2022-08-19T13:05:27;28.33;66.28
64924;HTU21D;51436;44.692;39.214;2022-08-19T13:07:57;28.28;66.74
64924;HTU21D;51436;44.692;39.214;2022-08-19T13:10:32;28.24;66.76
64924;HTU21D;51436;44.692;39.214;2022-08-19T13:16:08;28.18;67.44
64924;HTU21D;51436;44.692;39.214;2022-08-19T13:18:35;28.17;67.97
64924;HTU21D;51436;44.692;39.214;2022-08-19T13:21:03;28.15;68.26
64924;HTU21D;51436;44.692;39.214;2022-08-19T13:23:31;28.15;68.53
64924;HTU21D;51436;44.692;39.214;2022-08-19T13:26:02;28.16;68.84
64924;HTU21D;51436;44.692;39.214;2022-08-19T13:28:29;28.21;68.81
64924;HTU21D;51436;44.692;39.214;2022-08-19T13:31:17;28.42;68.38
64924;HTU21D;51436;44.692;39.214;2022-08-19T13:34:01;28.69;67.20
64924;HTU21D;51436;44.692;39.214;2022-08-19T13:36:28;28.94;65.98
64924;HTU21D;51436;44.692;39.214;2022-08-19T13:38:55;29.19;64.76
64924;HTU21D;51436;44.692;39.214;2022-08-19T13:41:22;29.38;63.63
64924;HTU21D;51436;44.692;39.214;2022-08-19T13:43:48;29.52;62.92
64924;HTU21D;51436;44.692;39.214;2022-08-19T13:46:14;29.65;62.34
64924;HTU21D;51436;44.692;39.214;2022-08-19T13:48:42;29.78;61.44
64924;HTU21D;51436;44.692;39.214;2022-08-19T13:51:08;29.86;60.41
64924;HTU21D;51436;44.692;39.214;2022-08-19T13:53:37;29.92;59.16
64924;HTU21D;51436;44.692;39.214;2022-08-19T13:56:08;30.00;59.35
64924;HTU21D;51436;44.692;39.214;2022-08-19T13:58:36;30.06;58.48
64924;HTU21D;51436;44.692;39.214;2022-08-19T14:01:04;30.09;57.67
64924;HTU21D;51436;44.692;39.214;2022-08-19T14:03:31;30.13;57.55
64924;HTU21D;51436;44.692;39.214;2022-08-19T14:05:58;30.11;57.25
64924;HTU21D;51436;44.692;39.214;2022-08-19T14:08:25;30.09;56.84
64924;HTU21D;51436;44.692;39.214;2022-08-19T14:10:56;30.08;56.92
64924;HTU21D;51436;44.692;39.214;2022-08-19T14:13:23;30.09;56.50
64924;HTU21D;51436;44.692;39.214;2022-08-19T14:15:50;30.09;56.61
64924;HTU21D;51436;44.692;39.214;2022-08-19T14:18:17;30.08;56.36
64924;HTU21D;51436;44.692;39.214;2022-08-19T14:20:44;30.01;56.60
64924;HTU21D;51436;44.692;39.214;2022-08-19T14:23:11;29.88;56.88
64924;HTU21D;51436;44.692;39.214;2022-08-19T14:25:38;29.83;56.92
64924;HTU21D;51436;44.692;39.214;2022-08-19T14:28:05;29.78;56.97
64924;HTU21D;51436;44.692;39.214;2022-08-19T14:30:34;29.68;57.08
64924;HTU21D;51436;44.692;39.214;2022-08-19T14:33:04;29.58;57.26
64924;HTU21D;51436;44.692;39.214;2022-08-19T14:35:32;29.53;57.45
64924;HTU21D;51436;44.692;39.214;2022-08-19T14:38:05;29.52;57.41
64924;HTU21D;51436;44.692;39.214;2022-08-19T14:40:32;29.53;57.39
64924;HTU21D;51436;44.692;39.214;2022-08-19T14:43:02;29.50;57.45
64924;HTU21D;51436;44.692;39.214;2022-08-19T14:45:32;29.50;57.51
64924;HTU21D;51436;44.692;39.214;2022-08-19T14:47:59;29.50;57.48
64924;HTU21D;51436;44.692;39.214;2022-08-19T14:50:26;29.49;57.71
64924;HTU21D;51436;44.692;39.214;2022-08-19T14:53:06;29.46;57.77
64924;HTU21D;51436;44.692;39.214;2022-08-19T14:55:33;29.44;57.71
64924;HTU21D;51436;44.692;39.214;2022-08-19T14:57:59;29.42;57.80
64924;HTU21D;51436;44.692;39.214;2022-08-19T15:00:29;29.39;57.96
64924;HTU21D;51436;44.692;39.214;2022-08-19T15:02:55;29.36;58.10
64924;HTU21D;51436;44.692;39.214;2022-08-19T15:05:22;29.35;58.00
64924;HTU21D;51436;44.692;39.214;2022-08-19T15:07:48;29.31;58.29
64924;HTU21D;51436;44.692;39.214;2022-08-19T15:10:16;29.28;58.32
64924;HTU21D;51436;44.692;39.214;2022-08-19T15:12:42;29.26;58.54
64924;HTU21D;51436;44.692;39.214;2022-08-19T15:15:12;29.21;58.85
64924;HTU21D;51436;44.692;39.214;2022-08-19T15:17:41;29.19;59.07
64924;HTU21D;51436;44.692;39.214;2022-08-19T15:20:08;29.16;59.37
64924;HTU21D;51436;44.692;39.214;2022-08-19T15:22:36;29.11;59.68
64924;HTU21D;51436;44.692;39.214;2022-08-19T15:25:04;29.06;59.90
64924;HTU21D;51436;44.692;39.214;2022-08-19T15:27:31;29.03;60.15
64924;HTU21D;51436;44.692;39.214;2022-08-19T15:29:57;28.99;60.30
64924;HTU21D;51436;44.692;39.214;2022-08-19T15:32:24;28.93;60.47
64924;HTU21D;51436;44.692;39.214;2022-08-19T15:34:52;28.90;60.88
64924;HTU21D;51436;44.692;39.214;2022-08-19T15:37:18;28.86;61.28
64924;HTU21D;51436;44.692;39.214;2022-08-19T15:39:48;28.77;61.59
64924;HTU21D;51436;44.692;39.214;2022-08-19T15:42:14;28.71;61.96
64924;HTU21D;51436;44.692;39.214;2022-08-19T15:44:40;28.63;62.20